Time;durP1;ratioP1;P1;durP2;ratioP2;P2;SDS_P1;SDS_P2;PMS_P1;PMS_P2;Temp;Humidity;BMP_temperature;BMP_pressure;BME280_temperature;BME280_humidity;BME280_pressure;Samples;Min_cycle;Max_cycle;Signal;HPM_P1;HPM_P2
2022/05/01 00:01:07;;;;;;;16.97;12.37;;;7.60;99.90;;;;;;4938408;29;20640;-80
2022/05/01 00:03:35;;;;;;;18.57;13.13;;;7.60;99.90;;;;;;4937880;29;20205;-80
2022/05/01 00:06:07;;;;;;;16.10;13.07;;;7.60;99.90;;;;;;4938730;29;20280;-80
2022/05/01 00:08:35;;;;;;;15.00;12.20;;;7.60;99.90;;;;;;4947243;29;20210;-79
2022/05/01 00:11:01;;;;;;;14.53;12.17;;;7.60;99.90;;;;;;4949460;29;20665;-80
2022/05/01 00:13:28;;;;;;;16.77;12.73;;;7.60;99.90;;;;;;4944634;29;20186;-80
2022/05/01 00:15:54;;;;;;;17.53;13.57;;;7.60;99.90;;;;;;4944717;29;20182;-80
2022/05/01 00:18:20;;;;;;;15.60;13.87;;;7.60;99.90;;;;;;4952334;29;20233;-79
2022/05/01 00:20:46;;;;;;;17.13;13.30;;;7.50;99.90;;;;;;4950115;29;20197;-80
2022/05/01 00:23:12;;;;;;;17.50;13.90;;;7.50;99.90;;;;;;4951095;29;20202;-80
2022/05/01 00:25:41;;;;;;;18.90;13.43;;;7.50;99.90;;;;;;4949663;29;20561;-80
2022/05/01 00:28:11;;;;;;;19.10;13.47;;;7.50;99.90;;;;;;4950289;29;20215;-80
2022/05/01 00:30:37;;;;;;;19.17;14.67;;;7.50;99.90;;;;;;4950521;29;20174;-80
2022/05/01 00:38:31;;;;;;;19.53;14.80;;;7.50;99.90;;;;;;4949505;29;20283;-80
2022/05/01 00:40:58;;;;;;;19.80;14.03;;;7.50;99.90;;;;;;4948862;29;20207;-80
2022/05/01 00:43:23;;;;;;;18.37;14.13;;;7.50;99.90;;;;;;4948367;29;20253;-80
2022/05/01 00:45:49;;;;;;;19.40;15.03;;;7.60;99.90;;;;;;4948731;29;20701;-80
2022/05/01 00:48:15;;;;;;;19.33;15.00;;;7.50;99.90;;;;;;4949689;29;20217;-80
2022/05/01 00:50:41;;;;;;;18.63;15.03;;;7.50;99.90;;;;;;4948650;29;20206;-80
2022/05/01 00:53:08;;;;;;;18.93;13.40;;;7.50;99.90;;;;;;4948720;29;20679;-80
2022/05/01 00:55:35;;;;;;;21.13;14.03;;;7.60;99.90;;;;;;4947753;29;20174;-80
2022/05/01 00:58:03;;;;;;;18.17;14.23;;;7.60;99.90;;;;;;4948226;29;20183;-80
2022/05/01 01:00:29;;;;;;;17.83;13.83;;;7.50;99.90;;;;;;4948045;29;20238;-80
2022/05/01 01:02:55;;;;;;;20.30;15.07;;;7.60;99.90;;;;;;4947216;29;20217;-80
2022/05/01 01:05:21;;;;;;;18.70;14.60;;;7.60;99.90;;;;;;4947392;29;20193;-80
2022/05/01 01:07:46;;;;;;;19.10;14.63;;;7.50;99.90;;;;;;4948994;29;20189;-80
2022/05/01 01:10:12;;;;;;;20.53;15.80;;;7.50;99.90;;;;;;4947188;29;20185;-80
2022/05/01 01:12:56;;;;;;;18.77;14.57;;;7.40;99.90;;;;;;4947949;29;20213;-80
2022/05/01 01:15:31;;;;;;;19.90;14.70;;;7.40;99.90;;;;;;4946894;29;20173;-80
2022/05/01 01:17:58;;;;;;;20.40;15.97;;;7.40;99.90;;;;;;4948796;29;20163;-80
2022/05/01 01:20:25;;;;;;;20.37;15.83;;;7.30;99.90;;;;;;4946416;29;20659;-80
2022/05/01 01:22:53;;;;;;;21.07;16.33;;;7.30;99.90;;;;;;4948577;29;20203;-80
2022/05/01 01:25:32;;;;;;;21.83;16.13;;;7.20;99.90;;;;;;4948585;29;20181;-80
2022/05/01 01:28:03;;;;;;;21.63;16.57;;;7.20;99.90;;;;;;4946269;29;20168;-80
2022/05/01 01:33:19;;;;;;;22.27;16.20;;;7.20;99.90;;;;;;4947777;29;20218;-80
2022/05/01 01:35:48;;;;;;;19.73;15.07;;;7.10;99.90;;;;;;4947050;29;20234;-80
2022/05/01 01:38:14;;;;;;;20.53;16.17;;;7.10;99.90;;;;;;4947457;29;20601;-80
2022/05/01 01:40:41;;;;;;;22.20;16.73;;;;;;;;;;4947309;29;20198;-80
2022/05/01 01:43:07;;;;;;;21.53;15.97;;;7.10;99.90;;;;;;4947187;29;20244;-80
2022/05/01 01:45:33;;;;;;;21.20;17.00;;;7.10;99.90;;;;;;4948243;29;20266;-80
2022/05/01 01:48:16;;;;;;;24.13;17.90;;;7.10;99.90;;;;;;4947821;29;20228;-80
2022/05/01 01:50:43;;;;;;;22.47;16.73;;;7.10;99.90;;;;;;4945709;29;20179;-80
2022/05/01 01:53:10;;;;;;;30.07;17.90;;;7.10;99.90;;;;;;4946696;29;20684;-80
2022/05/01 01:55:36;;;;;;;20.53;16.10;;;7.10;99.90;;;;;;4947588;29;20195;-80
2022/05/01 01:58:03;;;;;;;25.37;18.37;;;7.00;99.90;;;;;;4946148;29;20187;-80
2022/05/01 02:00:28;;;;;;;24.33;17.63;;;6.90;99.90;;;;;;4947000;29;20178;-80
2022/05/01 02:03:03;;;;;;;21.83;17.90;;;6.90;99.90;;;;;;4946948;29;20688;-80
2022/05/01 02:05:31;;;;;;;25.57;17.77;;;6.90;99.90;;;;;;4947459;29;20181;-80
2022/05/01 02:07:57;;;;;;;25.87;17.50;;;6.80;99.90;;;;;;4945483;29;20195;-80
2022/05/01 02:10:24;;;;;;;23.07;16.97;;;6.70;99.90;;;;;;4945247;29;20250;-80
2022/05/01 02:12:50;;;;;;;24.67;18.20;;;6.70;99.90;;;;;;4945883;29;20213;-80
2022/05/01 02:15:17;;;;;;;26.47;18.13;;;6.70;99.90;;;;;;4947404;29;20239;-80
2022/05/01 02:17:44;;;;;;;24.17;17.90;;;6.70;99.90;;;;;;4945151;29;20240;-80
2022/05/01 02:20:10;;;;;;;26.20;18.60;;;6.60;99.90;;;;;;4948348;29;20244;-80
2022/05/01 02:22:38;;;;;;;28.37;19.57;;;6.60;99.90;;;;;;4949550;29;20257;-79
2022/05/01 02:25:04;;;;;;;26.03;19.13;;;6.50;99.90;;;;;;4946559;29;20183;-80
2022/05/01 02:27:31;;;;;;;29.33;19.03;;;6.50;99.90;;;;;;4946804;29;20238;-80
2022/05/01 02:29:57;;;;;;;27.10;19.20;;;6.50;99.90;;;;;;4948264;29;20224;-80
2022/05/01 02:32:24;;;;;;;30.87;20.10;;;;;;;;;;4948434;29;20720;-79
2022/05/01 02:34:50;;;;;;;26.13;18.87;;;;;;;;;;4945994;29;20185;-80
2022/05/01 02:37:16;;;;;;;25.70;19.40;;;6.40;99.90;;;;;;4943986;29;20908;-80
2022/05/01 02:39:41;;;;;;;29.90;20.77;;;6.40;99.90;;;;;;4943774;29;20208;-80
2022/05/01 02:42:07;;;;;;;33.83;22.80;;;6.40;99.90;;;;;;4945353;29;20240;-80
2022/05/01 02:44:34;;;;;;;35.87;22.80;;;6.40;99.90;;;;;;4943174;29;20193;-80
2022/05/01 02:47:00;;;;;;;34.27;22.47;;;6.40;99.90;;;;;;4944874;29;20187;-80
2022/05/01 02:49:25;;;;;;;31.70;21.20;;;6.30;99.90;;;;;;4944261;29;20276;-80
2022/05/01 02:51:53;;;;;;;28.70;20.07;;;6.40;99.90;;;;;;4942678;29;20217;-80
2022/05/01 02:54:20;;;;;;;28.23;20.27;;;6.40;99.90;;;;;;4943963;29;20673;-80
2022/05/01 02:56:47;;;;;;;28.27;20.53;;;6.30;99.90;;;;;;4941833;29;20229;-80
2022/05/01 02:59:13;;;;;;;29.87;20.80;;;6.30;99.90;;;;;;4941477;29;20178;-79
2022/05/01 03:01:38;;;;;;;32.03;21.50;;;6.30;99.90;;;;;;4941816;29;20221;-79
2022/05/01 03:04:05;;;;;;;30.40;21.47;;;;;;;;;;4941086;29;20174;-79
2022/05/01 03:06:32;;;;;;;31.37;21.13;;;6.30;99.90;;;;;;4939065;29;20665;-80
2022/05/01 03:08:58;;;;;;;29.10;19.60;;;6.30;99.90;;;;;;4939382;29;20174;-80
2022/05/01 03:11:23;;;;;;;31.47;20.47;;;6.30;99.90;;;;;;4938097;29;20214;-80
2022/05/01 03:13:49;;;;;;;28.87;19.73;;;;;;;;;;4937670;29;20180;-80
2022/05/01 03:16:15;;;;;;;28.40;20.20;;;;;;;;;;4937472;29;20184;-80
2022/05/01 03:24:10;;;;;;;27.23;19.97;;;6.10;99.90;;;;;;4946400;29;20226;-80
2022/05/01 03:26:36;;;;;;;28.33;20.17;;;6.20;99.90;;;;;;4945330;29;20202;-80
2022/05/01 03:29:02;;;;;;;28.90;19.87;;;6.20;99.90;;;;;;4944004;29;20205;-80
2022/05/01 03:31:28;;;;;;;27.70;19.57;;;6.20;99.90;;;;;;4944301;29;20304;-80
2022/05/01 03:33:54;;;;;;;28.43;20.47;;;;;;;;;;4944441;29;20189;-80
2022/05/01 03:36:20;;;;;;;30.13;20.37;;;6.20;99.90;;;;;;4945851;29;20174;-80
2022/05/01 03:38:46;;;;;;;30.57;20.17;;;6.20;99.90;;;;;;4944207;29;20186;-80
2022/05/01 03:41:17;;;;;;;29.47;20.03;;;6.30;99.90;;;;;;4944197;29;20274;-79
2022/05/01 03:43:43;;;;;;;29.77;20.80;;;6.30;99.90;;;;;;4944127;29;20186;-80
2022/05/01 03:46:10;;;;;;;28.37;20.73;;;6.20;99.90;;;;;;4945644;29;20710;-80
2022/05/01 03:48:36;;;;;;;30.17;19.13;;;6.30;99.90;;;;;;4945981;29;20177;-80
2022/05/01 03:51:02;;;;;;;26.10;18.77;;;;;;;;;;4945078;29;20182;-80
2022/05/01 03:53:29;;;;;;;30.03;20.03;;;6.30;99.90;;;;;;4943774;29;20178;-80
2022/05/01 03:55:55;;;;;;;27.20;18.90;;;6.30;99.90;;;;;;4948222;29;20174;-80
2022/05/01 03:58:21;;;;;;;30.50;20.07;;;6.40;99.90;;;;;;4947899;29;20236;-80
2022/05/01 04:00:48;;;;;;;30.67;20.17;;;6.30;99.90;;;;;;4947751;29;20186;-80
2022/05/01 04:03:17;;;;;;;27.13;19.20;;;6.30;99.90;;;;;;4949401;29;20291;-80
2022/05/01 04:05:44;;;;;;;30.80;20.77;;;6.40;99.90;;;;;;4948082;29;20525;-80
2022/05/01 04:08:11;;;;;;;31.43;21.00;;;6.30;99.90;;;;;;4947601;29;20594;-80
2022/05/01 04:10:41;;;;;;;31.03;20.27;;;6.30;99.90;;;;;;4948095;29;20177;-80
2022/05/01 04:13:08;;;;;;;30.03;20.53;;;6.10;99.90;;;;;;4948900;29;20210;-81
2022/05/01 04:15:36;;;;;;;28.43;19.70;;;6.30;99.90;;;;;;4949463;29;20174;-80
2022/05/01 04:18:03;;;;;;;27.63;19.03;;;6.30;99.90;;;;;;4948629;29;20923;-80
2022/05/01 04:20:29;;;;;;;28.37;19.53;;;6.30;99.90;;;;;;4948828;29;20178;-80
2022/05/01 04:22:55;;;;;;;31.23;20.47;;;6.30;99.90;;;;;;4949016;29;20582;-80
2022/05/01 04:25:26;;;;;;;31.47;20.53;;;6.50;99.90;;;;;;4949481;29;20181;-80
2022/05/01 04:28:00;;;;;;;30.83;20.47;;;6.30;99.90;;;;;;4948038;29;20185;-80
2022/05/01 04:30:27;;;;;;;31.17;19.90;;;6.30;99.90;;;;;;4950007;29;20963;-81
2022/05/01 04:33:05;;;;;;;29.03;19.53;;;6.10;99.90;;;;;;4949308;29;20214;-80
2022/05/01 04:35:34;;;;;;;31.67;21.20;;;6.10;99.90;;;;;;4948637;29;20196;-80
2022/05/01 04:38:02;;;;;;;39.27;21.17;;;6.20;99.90;;;;;;4947897;29;20181;-80
2022/05/01 04:40:34;;;;;;;29.77;20.10;;;6.60;99.90;;;;;;4947311;29;20186;-80
2022/05/01 04:43:02;;;;;;;30.67;20.90;;;6.40;99.90;;;;;;4948420;29;20445;-80
2022/05/01 04:45:29;;;;;;;34.57;21.27;;;6.50;99.90;;;;;;4947310;29;20213;-80
2022/05/01 04:47:55;;;;;;;30.40;20.93;;;6.30;99.90;;;;;;4949018;29;20473;-80
2022/05/01 04:50:21;;;;;;;28.67;19.40;;;;;;;;;;4948721;29;20417;-80
2022/05/01 04:52:47;;;;;;;31.33;19.73;;;;;;;;;;4948422;29;20220;-80
2022/05/01 04:55:13;;;;;;;35.20;23.50;;;6.10;99.90;;;;;;4948623;29;20185;-80
2022/05/01 04:57:39;;;;;;;37.43;22.70;;;;;;;;;;4947047;29;20558;-80
2022/05/01 05:00:07;;;;;;;33.60;21.80;;;6.30;99.90;;;;;;4948784;29;20531;-80
2022/05/01 05:02:41;;;;;;;29.77;20.40;;;6.40;99.90;;;;;;4947581;29;20217;-80
2022/05/01 05:05:09;;;;;;;31.27;21.83;;;6.30;99.90;;;;;;4947028;29;20173;-80
2022/05/01 05:07:38;;;;;;;28.43;19.47;;;6.30;99.90;;;;;;4947491;29;20220;-80
2022/05/01 05:10:06;;;;;;;31.20;19.27;;;6.30;99.90;;;;;;4947380;29;20182;-80
2022/05/01 05:12:32;;;;;;;29.00;19.60;;;6.30;99.90;;;;;;4948211;29;20245;-80
2022/05/01 05:15:00;;;;;;;29.57;19.70;;;6.20;99.90;;;;;;4949083;29;20574;-80
2022/05/01 05:17:27;;;;;;;25.63;17.97;;;6.30;99.90;;;;;;4947443;29;20485;-80
2022/05/01 05:19:54;;;;;;;29.23;20.03;;;6.40;99.90;;;;;;4947986;29;20416;-80
2022/05/01 05:22:20;;;;;;;27.60;19.40;;;6.70;99.90;;;;;;4947879;29;20560;-80
2022/05/01 05:24:46;;;;;;;26.37;17.67;;;6.50;99.90;;;;;;4948673;29;20195;-80
2022/05/01 05:27:13;;;;;;;31.13;19.90;;;6.40;99.90;;;;;;4946228;29;20451;-80
2022/05/01 05:29:39;;;;;;;28.87;19.30;;;6.40;99.90;;;;;;4945883;29;20248;-80
2022/05/01 05:32:06;;;;;;;27.67;19.77;;;6.50;99.90;;;;;;4946798;29;20209;-79
2022/05/01 05:34:31;;;;;;;27.43;19.60;;;6.50;99.90;;;;;;4948131;29;20205;-80
2022/05/01 05:36:57;;;;;;;26.77;17.80;;;6.60;99.90;;;;;;4947386;29;20180;-80
2022/05/01 05:39:23;;;;;;;30.27;18.40;;;6.70;99.90;;;;;;4946425;29;20174;-79
2022/05/01 05:41:48;;;;;;;29.50;19.33;;;6.70;99.90;;;;;;4947428;29;20564;-80
2022/05/01 05:44:14;;;;;;;31.80;19.93;;;6.70;99.90;;;;;;4945724;29;20553;-80
2022/05/01 05:46:40;;;;;;;25.67;18.33;;;7.00;99.90;;;;;;4947551;29;20255;-80
2022/05/01 05:49:06;;;;;;;28.60;19.60;;;;;;;;;;4946033;29;20185;-80
2022/05/01 05:51:31;;;;;;;27.33;18.80;;;7.20;99.90;;;;;;4946546;29;20622;-80
2022/05/01 05:53:57;;;;;;;28.93;20.13;;;;;;;;;;4947794;29;20175;-79
2022/05/01 05:56:24;;;;;;;27.00;18.53;;;7.20;99.90;;;;;;4947370;29;20174;-80
2022/05/01 05:58:50;;;;;;;25.53;18.40;;;7.40;99.90;;;;;;4947029;29;20233;-80
2022/05/01 06:01:16;;;;;;;23.37;17.10;;;7.50;99.90;;;;;;4944484;29;20188;-80
2022/05/01 06:03:42;;;;;;;23.47;16.47;;;7.80;99.90;;;;;;4945011;29;20211;-80
2022/05/01 06:06:08;;;;;;;22.80;16.47;;;7.60;99.90;;;;;;4944403;29;20238;-80
2022/05/01 06:08:35;;;;;;;26.07;17.37;;;7.60;99.90;;;;;;4943717;29;20186;-80
2022/05/01 06:11:01;;;;;;;23.60;17.00;;;7.90;99.90;;;;;;4944681;29;20211;-80
2022/05/01 06:13:27;;;;;;;20.67;15.33;;;7.80;99.90;;;;;;4944563;29;20197;-79
2022/05/01 06:15:53;;;;;;;21.10;15.57;;;7.90;99.90;;;;;;4943918;29;20229;-79
2022/05/01 06:18:18;;;;;;;20.30;14.97;;;8.00;99.90;;;;;;4940577;29;20280;-79
2022/05/01 06:20:44;;;;;;;17.90;14.43;;;8.20;99.90;;;;;;4940529;29;20186;-80
2022/05/01 06:23:10;;;;;;;21.47;14.83;;;8.20;99.90;;;;;;4940898;29;20203;-79
2022/05/01 06:25:43;;;;;;;19.30;14.63;;;8.30;99.90;;;;;;4938865;29;20183;-80
2022/05/01 06:28:09;;;;;;;20.23;14.77;;;8.40;99.90;;;;;;4939033;29;20164;-80
2022/05/01 06:30:35;;;;;;;20.23;15.37;;;8.50;99.90;;;;;;4942481;29;20522;-82
2022/05/01 06:33:00;;;;;;;19.50;14.50;;;8.50;99.90;;;;;;4946603;29;20239;-80
2022/05/01 06:35:31;;;;;;;20.27;14.43;;;8.50;99.90;;;;;;4944648;29;20206;-80
2022/05/01 06:37:57;;;;;;;21.63;16.57;;;8.50;99.90;;;;;;4946147;29;20178;-80
2022/05/01 06:40:31;;;;;;;25.63;16.97;;;8.70;99.90;;;;;;5080333;28;20576;-78
2022/05/01 06:42:57;;;;;;;22.33;16.60;;;8.80;99.90;;;;;;5077334;28;20204;-79
2022/05/01 06:45:22;;;;;;;23.37;16.50;;;8.90;99.90;;;;;;5077239;28;20177;-79
2022/05/01 06:47:48;;;;;;;24.10;17.43;;;8.90;99.90;;;;;;5075412;28;20180;-79
2022/05/01 06:50:14;;;;;;;23.40;15.37;;;8.90;99.90;;;;;;5074729;28;20200;-78
2022/05/01 06:52:41;;;;;;;23.83;16.10;;;8.90;99.90;;;;;;5073995;28;20673;-79
2022/05/01 06:55:07;;;;;;;18.90;15.17;;;9.00;99.90;;;;;;5074529;28;20186;-79
2022/05/01 06:57:32;;;;;;;23.23;15.83;;;9.00;99.90;;;;;;5074206;28;20190;-79
2022/05/01 06:59:58;;;;;;;18.67;15.17;;;9.00;99.90;;;;;;5077581;28;20201;-79
2022/05/01 07:02:24;;;;;;;18.23;14.47;;;9.10;99.90;;;;;;5079285;28;20185;-79
2022/05/01 07:04:49;;;;;;;18.77;14.87;;;9.10;99.90;;;;;;5078560;28;20237;-79
2022/05/01 07:07:15;;;;;;;20.73;15.80;;;9.10;99.90;;;;;;5076639;28;20538;-79
2022/05/01 07:09:41;;;;;;;18.70;14.83;;;9.20;99.90;;;;;;5074267;28;20543;-79
2022/05/01 07:12:10;;;;;;;18.17;14.47;;;9.40;99.90;;;;;;5077814;28;20222;-79
2022/05/01 07:14:37;;;;;;;17.87;14.37;;;9.60;99.90;;;;;;5078497;28;20237;-79
2022/05/01 07:17:03;;;;;;;16.90;13.63;;;9.90;99.90;;;;;;5078084;28;20177;-79
2022/05/01 07:19:29;;;;;;;16.33;13.23;;;10.20;99.90;;;;;;5078100;28;20288;-79
2022/05/01 07:21:54;;;;;;;16.43;12.43;;;10.30;99.90;;;;;;5078776;28;20553;-79
2022/05/01 07:24:20;;;;;;;17.57;13.37;;;10.20;99.90;;;;;;5076906;28;20173;-79
2022/05/01 07:26:46;;;;;;;16.77;13.03;;;10.30;99.90;;;;;;5078220;28;20175;-79
2022/05/01 07:29:11;;;;;;;15.60;12.83;;;10.40;99.90;;;;;;5078502;28;20243;-79
2022/05/01 07:31:37;;;;;;;17.67;12.67;;;10.60;99.90;;;;;;5077592;28;20281;-79
2022/05/01 07:34:03;;;;;;;16.23;11.83;;;10.70;99.90;;;;;;5079193;28;20183;-79
2022/05/01 07:36:28;;;;;;;15.23;11.47;;;10.80;99.90;;;;;;5078679;28;20180;-79
2022/05/01 07:38:54;;;;;;;14.63;12.27;;;11.00;99.90;;;;;;5076548;28;20231;-80
2022/05/01 07:41:20;;;;;;;13.73;11.20;;;11.20;99.90;;;;;;5076548;28;20193;-79
2022/05/01 07:43:46;;;;;;;12.67;11.07;;;11.30;99.90;;;;;;5078483;28;20196;-79
2022/05/01 07:46:12;;;;;;;11.00;9.77;;;11.60;99.90;;;;;;5078634;28;20173;-79
2022/05/01 07:48:38;;;;;;;12.17;9.90;;;11.90;99.90;;;;;;5078335;28;20195;-79
2022/05/01 07:51:04;;;;;;;11.97;10.53;;;12.40;99.90;;;;;;5070070;28;20176;-80
2022/05/01 07:53:32;;;;;;;12.23;10.73;;;12.90;99.90;;;;;;5065418;28;20253;-79
2022/05/01 07:55:57;;;;;;;12.87;10.07;;;12.80;99.90;;;;;;5065914;28;20173;-79
2022/05/01 07:58:23;;;;;;;13.33;10.60;;;13.20;99.90;;;;;;5063707;28;20197;-79
2022/05/01 08:00:49;;;;;;;22.57;10.50;;;13.90;99.90;;;;;;5065367;28;20183;-79
2022/05/01 08:05:59;;;;;;;11.37;9.77;;;13.10;99.90;;;;;;5065914;28;20289;-81
2022/05/01 08:08:25;;;;;;;12.10;10.33;;;12.40;99.90;;;;;;5064877;28;20187;-80
2022/05/01 08:10:51;;;;;;;12.13;10.57;;;12.00;99.90;;;;;;5065729;28;20593;-79
2022/05/01 08:13:17;;;;;;;15.17;10.67;;;11.60;99.90;;;;;;5065485;28;20201;-79
2022/05/01 08:15:43;;;;;;;12.93;10.17;;;11.40;99.90;;;;;;5066469;28;20182;-79
2022/05/01 08:21:05;;;;;;;11.83;9.97;;;13.00;99.90;;;;;;5071441;28;20272;-79
2022/05/01 08:23:32;;;;;;;11.57;10.17;;;14.00;99.90;;;;;;5072824;28;20154;-79
2022/05/01 08:26:02;;;;;;;10.77;9.67;;;13.70;99.90;;;;;;5067582;28;20543;-79
2022/05/01 08:28:30;;;;;;;10.50;9.07;;;13.70;99.90;;;;;;5064630;28;20158;-80
2022/05/01 08:30:56;;;;;;;13.30;10.17;;;13.70;99.90;;;;;;5063168;28;20198;-79
2022/05/01 08:33:21;;;;;;;11.33;9.10;;;13.50;99.90;;;;;;5031980;28;20226;-79
2022/05/01 08:35:47;;;;;;;11.87;10.53;;;13.20;99.90;;;;;;5044201;28;20265;-79
2022/05/01 08:38:12;;;;;;;10.70;9.47;;;12.80;99.90;;;;;;5041722;28;20234;-79
2022/05/01 08:40:39;;;;;;;13.17;9.23;;;12.90;99.90;;;;;;5043660;28;20171;-79
2022/05/01 08:43:05;;;;;;;11.17;9.77;;;12.90;99.90;;;;;;5043576;28;20193;-79
2022/05/01 08:45:45;;;;;;;11.30;9.73;;;13.10;99.90;;;;;;5025203;28;20275;-79
2022/05/01 08:48:25;;;;;;;10.37;8.83;;;13.10;99.90;;;;;;5041399;28;20175;-79
2022/05/01 08:50:54;;;;;;;11.60;9.43;;;13.10;99.90;;;;;;5041537;28;20250;-79
2022/05/01 08:53:26;;;;;;;10.13;9.00;;;13.60;99.90;;;;;;5042849;28;20195;-79
2022/05/01 08:55:52;;;;;;;10.23;8.67;;;14.60;99.90;;;;;;5042634;28;20190;-79
2022/05/01 08:58:18;;;;;;;10.30;9.00;;;14.80;99.90;;;;;;5040896;28;20656;-79
2022/05/01 09:00:45;;;;;;;10.03;8.43;;;14.80;99.90;;;;;;5040834;28;20174;-79
2022/05/01 09:03:11;;;;;;;10.03;8.97;;;15.10;99.90;;;;;;5039343;28;20525;-79
2022/05/01 09:05:39;;;;;;;10.90;8.93;;;15.70;99.90;;;;;;5037913;28;20182;-80
2022/05/01 09:08:05;;;;;;;10.03;9.03;;;15.30;99.90;;;;;;5037025;28;20175;-80
2022/05/01 09:10:33;;;;;;;9.83;8.63;;;14.80;99.90;;;;;;5037571;28;20183;-80
2022/05/01 09:12:58;;;;;;;9.47;8.37;;;14.40;99.90;;;;;;5036727;28;20203;-80
2022/05/01 09:15:32;;;;;;;9.43;8.40;;;14.50;99.90;;;;;;5034348;28;20260;-80
2022/05/01 09:18:09;;;;;;;10.03;8.10;;;15.30;99.90;;;;;;5037368;28;20196;-80
2022/05/01 09:21:02;;;;;;;8.73;7.83;;;15.20;99.90;;;;;;5041753;28;20182;-80
2022/05/01 09:23:45;;;;;;;9.80;8.20;;;14.50;99.90;;;;;;5041220;28;20171;-80
2022/05/01 09:26:14;;;;;;;11.20;8.70;;;14.30;99.90;;;;;;5041576;28;20174;-80
2022/05/01 09:28:51;;;;;;;10.30;8.37;;;14.10;99.90;;;;;;5042457;28;20175;-79
2022/05/01 09:31:38;;;;;;;8.50;7.60;;;14.00;99.90;;;;;;5042541;28;20548;-80
2022/05/01 09:34:23;;;;;;;9.67;7.87;;;14.00;99.90;;;;;;5043544;28;20192;-80
2022/05/01 09:36:50;;;;;;;8.80;7.87;;;14.10;99.90;;;;;;5043411;28;20178;-79
2022/05/01 09:39:25;;;;;;;9.73;7.63;;;14.30;99.90;;;;;;5043294;28;20206;-80
2022/05/01 09:41:52;;;;;;;9.10;8.20;;;14.50;99.90;;;;;;5042124;28;20202;-80
2022/05/01 09:44:19;;;;;;;9.03;8.03;;;14.30;99.90;;;;;;5042257;28;20178;-80
2022/05/01 09:46:46;;;;;;;8.40;7.50;;;14.10;99.90;;;;;;5042552;28;20171;-80
2022/05/01 09:49:14;;;;;;;8.07;7.27;;;13.80;99.90;;;;;;5043745;28;20229;-80
2022/05/01 09:51:43;;;;;;;9.07;7.77;;;13.50;99.90;;;;;;5042891;28;20209;-80
2022/05/01 09:54:16;;;;;;;9.97;8.77;;;13.60;99.90;;;;;;5042263;28;20315;-81
2022/05/01 09:56:49;;;;;;;8.07;7.27;;;13.80;99.90;;;;;;5043068;28;20640;-80
2022/05/01 09:59:16;;;;;;;8.40;6.87;;;13.90;99.90;;;;;;5043628;28;20275;-80
2022/05/01 10:02:01;;;;;;;8.63;7.03;;;14.10;99.90;;;;;;5043503;28;20203;-81
2022/05/01 10:04:28;;;;;;;9.57;7.33;;;14.10;99.90;;;;;;5044153;28;20148;-80
2022/05/01 10:06:55;;;;;;;9.00;7.50;;;14.20;99.90;;;;;;5044068;28;20175;-81
2022/05/01 10:09:25;;;;;;;7.43;6.70;;;13.70;99.90;;;;;;5047960;28;20198;-80
2022/05/01 10:11:59;;;;;;;8.33;7.50;;;13.50;99.90;;;;;;5050715;28;20259;-79
2022/05/01 10:14:26;;;;;;;9.63;7.87;;;13.60;99.90;;;;;;5047920;28;20202;-80
2022/05/01 10:16:54;;;;;;;9.50;7.30;;;13.80;99.90;;;;;;5043115;28;20177;-80
2022/05/01 10:19:23;;;;;;;8.67;7.77;;;13.90;99.90;;;;;;5043470;28;20259;-82
2022/05/01 10:21:51;;;;;;;12.57;8.17;;;13.90;99.90;;;;;;5042139;28;20200;-80
2022/05/01 10:24:18;;;;;;;10.60;8.67;;;13.90;99.90;;;;;;5043348;28;20176;-80
2022/05/01 10:27:06;;;;;;;10.13;8.60;;;13.90;99.90;;;;;;5043484;28;20175;-80
2022/05/01 10:32:37;;;;;;;10.50;9.23;;;13.50;99.90;;;;;;5042620;28;20288;-81
2022/05/01 10:35:21;;;;;;;11.33;9.10;;;13.50;99.90;;;;;;5041820;28;20189;-81
2022/05/01 10:38:25;;;;;;;9.90;8.87;;;13.50;99.90;;;;;;5041863;28;20640;-80
2022/05/01 10:40:55;;;;;;;11.97;8.90;;;13.70;99.90;;;;;;5028659;28;20232;-81
2022/05/01 10:43:28;;;;;;;12.37;9.33;;;13.90;99.90;;;;;;5042502;28;20206;-80
2022/05/01 10:45:59;;;;;;;11.43;9.57;;;13.90;99.90;;;;;;5042454;28;20587;-79
2022/05/01 10:48:36;;;;;;;12.60;9.47;;;13.80;99.90;;;;;;5041112;28;20300;-80
2022/05/01 10:51:27;;;;;;;11.60;9.40;;;13.90;99.90;;;;;;5042342;28;20170;-80
2022/05/01 10:54:13;;;;;;;11.73;9.50;;;14.10;99.90;;;;;;5042886;28;20174;-81
2022/05/01 10:56:40;;;;;;;10.50;9.30;;;14.50;99.90;;;;;;5042583;28;20200;-81
2022/05/01 10:59:31;;;;;;;13.73;9.00;;;15.00;99.90;;;;;;5041417;28;20659;-80
2022/05/01 11:01:59;;;;;;;10.33;8.97;;;15.30;99.90;;;;;;5041005;28;20197;-81
2022/05/01 11:04:26;;;;;;;11.17;9.87;;;15.40;99.90;;;;;;5043358;28;20173;-81
2022/05/01 11:06:53;;;;;;;9.77;8.77;;;15.30;99.90;;;;;;5041495;28;20209;-81
2022/05/01 11:09:21;;;;;;;11.47;9.60;;;14.80;99.90;;;;;;5040811;28;20580;-81
2022/05/01 11:11:47;;;;;;;10.50;9.00;;;14.80;99.90;;;;;;5040882;28;20289;-80
2022/05/01 11:14:13;;;;;;;13.67;9.37;;;14.90;99.90;;;;;;5042467;28;20508;-80
2022/05/01 11:16:52;;;;;;;11.03;9.73;;;14.80;99.90;;;;;;5041966;28;20209;-80
2022/05/01 11:19:18;;;;;;;11.23;9.60;;;14.70;99.90;;;;;;5039813;28;20298;-78
2022/05/01 11:21:49;;;;;;;12.10;9.73;;;14.40;99.90;;;;;;5050076;28;20200;-79
2022/05/01 11:24:15;;;;;;;13.63;9.80;;;14.10;99.90;;;;;;5050197;28;20195;-78
2022/05/01 11:27:16;;;;;;;13.40;9.57;;;13.70;99.90;;;;;;5053631;28;20176;-80
2022/05/01 11:30:42;;;;;;;10.63;9.13;;;13.40;99.90;;;;;;5043892;28;20187;-80
2022/05/01 11:33:04;;;;;;;11.17;9.30;;;13.20;99.90;;;;;;5042111;28;20208;-81
2022/05/01 11:35:58;;;;;;;12.20;9.40;;;13.20;99.90;;;;;;5042969;28;20577;-80
2022/05/01 11:38:51;;;;;;;11.63;9.40;;;13.10;99.90;;;;;;5038985;28;20227;-81
2022/05/01 11:41:40;;;;;;;12.77;9.87;;;13.10;99.90;;;;;;5043414;28;20171;-80
2022/05/01 11:44:26;;;;;;;11.40;8.77;;;13.10;99.90;;;;;;5042114;28;20189;-80
2022/05/01 11:46:52;;;;;;;11.53;9.23;;;13.20;99.90;;;;;;5043225;28;20195;-80
2022/05/01 11:49:18;;;;;;;11.97;9.07;;;13.40;99.90;;;;;;5041624;28;20218;-80
2022/05/01 11:51:45;;;;;;;10.67;9.57;;;13.40;99.90;;;;;;5041798;28;20256;-80
2022/05/01 11:54:13;;;;;;;11.67;9.17;;;13.60;99.90;;;;;;5040195;28;20632;-80
2022/05/01 12:02:26;;;;;;;13.17;8.90;;;14.10;99.90;;;;;;5038738;28;20216;-80
2022/05/01 12:04:59;;;;;;;11.70;8.90;;;14.10;99.90;;;;;;5036042;28;20177;-80
2022/05/01 12:07:25;;;;;;;10.97;8.20;;;14.10;99.90;;;;;;5037335;28;20195;-81
2022/05/01 12:09:51;;;;;;;11.27;8.60;;;14.00;99.90;;;;;;5043991;28;20194;-80
2022/05/01 12:12:20;;;;;;;15.03;7.77;;;13.90;99.90;;;;;;5043850;28;20198;-81
2022/05/01 12:14:48;;;;;;;10.80;9.00;;;13.90;99.90;;;;;;5043391;28;20174;-80
2022/05/01 12:17:15;;;;;;;8.27;7.40;;;13.90;99.90;;;;;;5043645;28;20179;-81
2022/05/01 12:19:47;;;;;;;9.17;8.27;;;13.70;99.90;;;;;;5044995;28;20230;-81
2022/05/01 12:22:15;;;;;;;10.03;8.80;;;13.80;99.90;;;;;;5044016;28;20204;-80
2022/05/01 12:24:43;;;;;;;11.73;9.60;;;13.80;99.90;;;;;;5043675;28;20214;-80
2022/05/01 12:27:09;;;;;;;10.03;8.50;;;13.80;99.90;;;;;;5045445;28;20168;-79
2022/05/01 12:29:37;;;;;;;9.33;8.27;;;13.80;99.90;;;;;;5046232;28;20178;-79
2022/05/01 12:32:08;;;;;;;9.97;8.67;;;13.80;99.90;;;;;;5043761;28;20346;-79
2022/05/01 12:34:37;;;;;;;11.17;8.87;;;13.70;99.90;;;;;;5045323;28;20182;-79
2022/05/01 12:37:09;;;;;;;9.20;8.20;;;13.70;99.90;;;;;;5045158;28;20202;-79
2022/05/01 12:39:35;;;;;;;9.03;7.83;;;13.80;99.90;;;;;;5044862;28;20229;-79
2022/05/01 12:45:12;;;;;;;10.20;8.47;;;14.10;99.90;;;;;;5044752;28;20169;-79
2022/05/01 12:47:50;;;;;;;10.30;8.63;;;14.30;99.90;;;;;;5043496;28;20191;-79
2022/05/01 12:50:18;;;;;;;11.43;8.77;;;14.40;99.90;;;;;;5043613;28;20182;-79
2022/05/01 12:52:46;;;;;;;9.17;7.93;;;14.40;99.90;;;;;;5045237;28;20202;-79
2022/05/01 12:55:15;;;;;;;10.47;8.00;;;14.50;99.90;;;;;;5044567;28;20183;-79
2022/05/01 12:57:43;;;;;;;10.07;8.10;;;14.70;99.90;;;;;;5045382;28;20187;-79
2022/05/01 13:00:09;;;;;;;9.03;8.10;;;14.80;99.90;;;;;;5043997;28;20238;-79
2022/05/01 13:02:35;;;;;;;9.67;7.90;;;15.00;99.90;;;;;;5044033;28;20621;-80
2022/05/01 13:05:04;;;;;;;10.60;8.67;;;14.80;99.90;;;;;;5045245;28;20727;-79
2022/05/01 13:07:36;;;;;;;8.60;7.73;;;14.80;99.90;;;;;;5044120;28;20174;-79
2022/05/01 13:10:03;;;;;;;9.03;8.13;;;14.60;99.90;;;;;;5044292;28;20595;-78
2022/05/01 13:12:30;;;;;;;12.67;8.50;;;14.50;99.90;;;;;;5043017;28;20202;-79
2022/05/01 13:15:02;;;;;;;10.90;7.80;;;14.40;99.90;;;;;;5044593;28;20182;-79
2022/05/01 13:17:28;;;;;;;11.20;8.57;;;14.40;99.90;;;;;;5042253;28;20200;-79
2022/05/01 13:19:55;;;;;;;9.50;8.50;;;14.30;99.90;;;;;;5041634;28;20206;-80